Time;durP1;ratioP1;P1;durP2;ratioP2;P2;SDS_P1;SDS_P2;PMS_P1;PMS_P2;Temp;Humidity;BMP_temperature;BMP_pressure;BME280_temperature;BME280_humidity;BME280_pressure;Samples;Min_cycle;Max_cycle;Signal;HPM_P1;HPM_P2
2023/03/31 00:01:40;;;;;;;31.90;16.50;;;;;;;4.39;63.15;99869.22;1745930;82;21098;-63
2023/03/31 00:04:11;;;;;;;34.73;16.73;;;;;;;4.39;63.09;99869.22;1746255;81;21470;-63
2023/03/31 00:06:41;;;;;;;36.68;16.40;;;;;;;4.39;63.13;99867.86;1745951;82;21045;-61
2023/03/31 00:09:17;;;;;;;39.25;16.75;;;;;;;4.38;63.32;99864.81;1746049;82;21037;-62
2023/03/31 00:11:46;;;;;;;33.25;16.23;;;;;;;4.37;63.44;99863.63;1746179;82;21065;-63
2023/03/31 00:14:18;;;;;;;33.90;16.48;;;;;;;4.37;63.62;99867.69;1745956;82;21093;-64
2023/03/31 00:16:49;;;;;;;36.13;16.85;;;;;;;4.36;63.54;99860.06;1746338;82;21041;-63
2023/03/31 00:19:20;;;;;;;36.08;15.95;;;;;;;4.37;63.36;99865.83;1747589;82;20978;-63
2023/03/31 00:21:50;;;;;;;33.40;15.90;;;;;;;4.39;63.27;99865.66;1750077;81;21010;-62
2023/03/31 00:24:19;;;;;;;33.30;15.53;;;;;;;4.37;63.33;99864.98;1750492;82;21102;-63
2023/03/31 00:26:48;;;;;;;31.95;15.60;;;;;;;4.38;63.43;99862.61;1744610;82;21136;-63
2023/03/31 00:29:19;;;;;;;34.05;15.60;;;;;;;4.38;63.52;99859.89;1742544;81;21018;-64
2023/03/31 00:31:50;;;;;;;34.13;15.70;;;;;;;4.38;63.74;99862.61;1705377;84;21054;-62
2023/03/31 00:34:20;;;;;;;32.20;15.18;;;;;;;4.38;63.82;99855.83;1740695;82;21057;-62
2023/03/31 00:36:49;;;;;;;36.90;16.55;;;;;;;4.37;63.89;99845.48;1740360;82;21649;-63
2023/03/31 00:39:18;;;;;;;40.65;17.12;;;;;;;4.38;63.92;99844.98;1740478;82;20990;-62
2023/03/31 00:41:47;;;;;;;37.35;16.30;;;;;;;4.37;64.04;99836.50;1704989;84;21041;-63
2023/03/31 00:44:28;;;;;;;42.30;16.48;;;;;;;4.33;64.22;99833.80;1740376;82;21474;-63
2023/03/31 00:47:16;;;;;;;37.38;15.78;;;;;;;4.33;64.48;99829.73;1740271;82;21018;-64
2023/03/31 00:49:48;;;;;;;39.18;16.27;;;;;;;4.35;64.39;99827.69;1704983;84;21069;-63
2023/03/31 00:52:22;;;;;;;40.75;17.75;;;;;;;4.33;64.52;99825.16;1740681;82;21427;-63
2023/03/31 00:54:57;;;;;;;49.35;19.40;;;;;;;4.34;64.71;99820.58;1704874;84;21088;-63
2023/03/31 00:57:27;;;;;;;41.88;19.48;;;;;;;4.35;64.87;99823.12;1740429;82;21010;-63
2023/03/31 01:00:00;;;;;;;45.88;19.82;;;;;;;4.36;64.88;99821.25;1704918;84;21446;-63
2023/03/31 01:02:30;;;;;;;44.20;20.88;;;;;;;4.36;64.90;99821.25;1740500;81;21015;-63
2023/03/31 01:05:01;;;;;;;46.48;21.17;;;;;;;4.38;65.04;99821.92;1740490;82;21455;-64
2023/03/31 01:07:43;;;;;;;49.95;20.92;;;;;;;4.37;65.14;99818.37;1704900;83;21120;-63
2023/03/31 01:10:12;;;;;;;45.40;20.62;;;;;;;4.37;65.24;99818.87;1740444;82;21479;-63
2023/03/31 01:12:46;;;;;;;45.50;20.48;;;;;;;4.36;65.47;99807.69;1685239;84;21033;-62
2023/03/31 01:15:15;;;;;;;51.00;20.23;;;;;;;4.36;65.60;99813.96;1740679;82;21025;-63
2023/03/31 01:17:44;;;;;;;42.43;17.90;;;;;;;4.35;65.72;99801.93;1740645;82;21058;-63
2023/03/31 01:20:26;;;;;;;42.05;19.30;;;;;;;4.31;65.68;99802.78;1740507;81;21021;-63
2023/03/31 01:23:40;;;;;;;42.43;17.57;;;;;;;4.28;65.69;99798.22;1704746;83;21049;-62
2023/03/31 01:26:43;;;;;;;36.98;17.02;;;;;;;4.26;65.75;99802.45;1740528;80;21023;-63
2023/03/31 01:29:49;;;;;;;37.03;16.50;;;;;;;4.24;65.59;99792.29;1741081;81;20999;-62
2023/03/31 01:32:56;;;;;;;36.30;16.65;;;;;;;4.23;65.62;99793.81;1740964;82;21043;-63
2023/03/31 01:35:43;;;;;;;37.23;15.80;;;;;;;4.21;65.63;99789.92;1741258;82;21491;-61
2023/03/31 01:38:34;;;;;;;33.60;16.27;;;;;;;4.22;65.44;99788.05;1701107;82;20996;-64
2023/03/31 01:41:37;;;;;;;32.25;15.80;;;;;;;4.21;65.24;99775.52;1741249;82;21039;-62
2023/03/31 01:44:34;;;;;;;38.98;17.25;;;;;;;4.18;65.15;99777.22;1740775;82;21035;-62
2023/03/31 01:47:11;;;;;;;37.25;16.87;;;;;;;4.18;65.17;99774.51;1740599;82;21035;-63
2023/03/31 01:50:02;;;;;;;39.75;17.65;;;;;;;4.17;65.06;99770.10;1741036;82;21027;-62
2023/03/31 01:53:01;;;;;;;37.95;16.75;;;;;;;4.19;65.11;99766.71;1740938;82;21483;-64
2023/03/31 01:55:43;;;;;;;38.02;17.17;;;;;;;4.20;64.98;99773.83;1740910;82;21011;-63
2023/03/31 01:58:31;;;;;;;37.67;17.05;;;;;;;4.17;64.85;99768.23;1740834;82;21465;-62
2023/03/31 02:01:04;;;;;;;;;;;;;;;4.18;64.78;99763.16;1743460;82;20991;-63
2023/03/31 02:03:37;;;;;;;36.85;16.95;;;;;;;4.21;64.66;99763.32;1740871;82;20158;-63
2023/03/31 02:06:18;;;;;;;35.10;16.07;;;;;;;4.20;64.41;99758.92;1741068;82;21078;-62
2023/03/31 02:08:55;;;;;;;40.23;17.30;;;;;;;4.20;64.06;99754.34;1741035;82;21003;-64
2023/03/31 02:11:25;;;;;;;28.47;14.60;;;;;;;4.19;63.96;99746.38;1741014;81;21050;-63
2023/03/31 02:13:56;;;;;;;27.75;13.65;;;;;;;4.19;63.81;99740.95;1740921;82;21443;-62
2023/03/31 02:16:26;;;;;;;28.83;14.28;;;;;;;4.18;63.74;99738.75;1741035;81;21494;-62
2023/03/31 02:19:01;;;;;;;32.67;14.85;;;;;;;4.19;63.70;99734.17;1740931;82;21070;-64
2023/03/31 02:21:33;;;;;;;29.15;13.53;;;;;;;4.21;63.85;99728.07;1693651;85;21020;-65
2023/03/31 02:24:08;;;;;;;31.60;14.03;;;;;;;4.22;64.10;99731.12;1741499;82;21517;-64
2023/03/31 02:26:46;;;;;;;30.85;14.30;;;;;;;4.22;64.35;99721.63;1740690;80;21034;-63
2023/03/31 02:29:16;;;;;;;31.33;14.10;;;;;;;4.22;64.68;99722.98;1740598;81;21050;-62
2023/03/31 02:32:16;;;;;;;29.30;14.10;;;;;;;4.24;64.98;99726.37;1740709;82;21430;-62
2023/03/31 02:34:46;;;;;;;30.05;14.70;;;;;;;4.24;65.40;99726.37;1704953;84;21010;-63
2023/03/31 02:37:16;;;;;;;31.02;15.13;;;;;;;4.25;65.95;99717.22;1740728;82;21053;-63
2023/03/31 02:39:49;;;;;;;33.50;15.53;;;;;;;4.24;66.32;99706.88;1704824;83;21034;-62
2023/03/31 02:42:20;;;;;;;32.03;14.73;;;;;;;4.24;66.58;99706.88;1740582;82;21454;-65
2023/03/31 02:44:50;;;;;;;33.42;14.50;;;;;;;4.24;66.69;99713.66;1705006;84;21108;-63
2023/03/31 02:47:20;;;;;;;31.57;14.70;;;;;;;4.22;66.72;99702.65;1740823;81;21038;-63
2023/03/31 02:49:56;;;;;;;30.95;14.25;;;;;;;4.22;66.98;99698.08;1740417;82;21026;-63
2023/03/31 02:52:40;;;;;;;28.83;14.28;;;;;;;4.25;67.17;99695.53;1704996;83;21088;-62
2023/03/31 02:55:26;;;;;;;29.42;14.40;;;;;;;4.24;67.30;99696.03;1740238;82;21050;-62
2023/03/31 02:58:17;;;;;;;28.47;13.28;;;;;;;4.22;67.40;99702.14;1724805;81;21018;-62
2023/03/31 03:01:12;;;;;;;28.60;12.90;;;;;;;4.20;67.49;99704.18;1704829;84;21045;-62
2023/03/31 03:04:24;;;;;;;28.27;13.15;;;;;;;4.18;67.63;99705.38;1740315;82;20994;-65
2023/03/31 03:07:15;;;;;;;26.48;12.68;;;;;;;4.17;67.53;99699.62;1740421;82;21033;-63
2023/03/31 03:10:08;;;;;;;26.90;11.63;;;;;;;4.19;67.21;99700.28;1738127;81;21022;-64
2023/03/31 03:12:46;;;;;;;23.45;12.10;;;;;;;4.20;66.95;99693.84;1704928;83;21049;-63
2023/03/31 03:15:33;;;;;;;26.90;11.65;;;;;;;4.21;66.78;99692.31;1740348;82;20976;-63
2023/03/31 03:18:03;;;;;;;28.27;11.12;;;;;;;4.22;66.72;99693.16;1740287;81;21014;-63
2023/03/31 03:20:32;;;;;;;28.95;13.20;;;;;;;4.23;66.65;99690.78;1740335;81;21485;-63
2023/03/31 03:23:02;;;;;;;30.10;13.98;;;;;;;4.25;66.72;99697.73;1705038;84;21045;-63
2023/03/31 03:25:30;;;;;;;30.95;13.72;;;;;;;4.26;66.99;99691.80;1740322;81;21022;-63
2023/03/31 03:27:59;;;;;;;30.82;13.58;;;;;;;4.27;67.24;99688.91;1740849;82;21451;-62
2023/03/31 03:30:29;;;;;;;29.72;14.25;;;;;;;4.26;67.42;99693.99;1740823;82;21630;-63
2023/03/31 03:32:59;;;;;;;26.48;12.55;;;;;;;4.25;67.67;99688.23;1740733;82;21015;-63
2023/03/31 03:35:29;;;;;;;29.87;12.73;;;;;;;4.23;67.59;99688.08;1740831;82;21015;-62
2023/03/31 03:37:59;;;;;;;26.50;11.75;;;;;;;4.24;67.59;99681.63;1740881;82;21439;-62
2023/03/31 03:40:29;;;;;;;23.10;10.93;;;;;;;4.23;67.62;99683.50;1741101;82;21555;-63
2023/03/31 03:42:58;;;;;;;21.80;10.23;;;;;;;4.24;67.48;99678.92;1740978;82;21103;-63
2023/03/31 03:45:29;;;;;;;20.40;10.20;;;;;;;4.25;67.42;99681.45;1740920;82;21427;-65
2023/03/31 03:47:59;;;;;;;18.35;8.95;;;;;;;4.28;67.40;99676.20;1740906;81;21069;-62
2023/03/31 03:50:30;;;;;;;17.20;8.88;;;;;;;4.28;67.48;99674.33;1740907;82;21043;-65
2023/03/31 03:52:59;;;;;;;21.42;9.28;;;;;;;4.29;67.67;99674.66;1740858;82;21058;-63
2023/03/31 03:55:29;;;;;;;21.45;9.13;;;;;;;4.31;68.01;99672.63;1741287;82;20983;-62
2023/03/31 03:57:58;;;;;;;20.45;9.85;;;;;;;4.32;68.24;99670.25;1741165;82;21054;-63
2023/03/31 04:00:27;;;;;;;22.02;9.63;;;;;;;4.35;68.50;99668.54;1741988;82;21067;-62
2023/03/31 04:02:56;;;;;;;24.37;10.43;;;;;;;4.37;68.73;99669.72;1743635;82;21118;-62
2023/03/31 04:05:25;;;;;;;22.93;10.20;;;;;;;4.39;68.96;99664.97;1743896;82;21122;-67
2023/03/31 04:07:55;;;;;;;22.58;10.03;;;;;;;4.40;69.07;99664.78;1744591;82;21062;-61
2023/03/31 04:10:26;;;;;;;22.98;10.60;;;;;;;4.40;69.22;99661.23;1743595;82;21012;-62
2023/03/31 04:12:55;;;;;;;20.35;10.13;;;;;;;4.39;69.34;99663.09;1741831;82;21038;-64
2023/03/31 04:15:24;;;;;;;19.60;10.28;;;;;;;4.40;69.48;99660.72;1741028;82;21027;-63
2023/03/31 04:17:56;;;;;;;18.30;9.43;;;;;;;4.39;69.60;99663.09;1741052;82;21071;-63
2023/03/31 04:20:29;;;;;;;17.92;8.83;;;;;;;4.39;69.60;99659.53;1741130;82;21086;-63
2023/03/31 04:22:58;;;;;;;25.40;11.60;;;;;;;4.39;69.52;99660.89;1740943;82;21019;-64
2023/03/31 04:25:29;;;;;;;20.70;10.03;;;;;;;4.37;69.46;99655.64;1741031;82;21055;-62
2023/03/31 04:27:57;;;;;;;18.50;9.00;;;;;;;4.39;69.53;99652.76;1740891;81;21478;-60
2023/03/31 04:30:38;;;;;;;18.32;9.15;;;;;;;4.39;69.46;99654.96;1741013;82;21554;-62
2023/03/31 04:33:03;;;;;;;17.48;8.63;;;;;;;4.42;69.43;99649.69;1740069;82;21035;-61
2023/03/31 04:36:34;;;;;;;20.08;9.35;;;;;;;4.42;69.16;99650.54;1740991;82;20988;-62
2023/03/31 04:38:19;;;;;;;18.35;8.85;;;;;;;4.42;69.05;99646.47;1720889;82;21463;-62
2023/03/31 04:40:49;;;;;;;17.35;8.10;;;;;;;4.44;68.94;99649.84;1740918;82;21075;-64
2023/03/31 04:43:19;;;;;;;17.92;8.73;;;;;;;4.46;68.81;99645.61;1741184;82;21066;-62
2023/03/31 04:45:48;;;;;;;18.67;8.90;;;;;;;4.45;68.70;99644.77;1741030;82;21076;-62
2023/03/31 04:48:24;;;;;;;24.00;10.15;;;;;;;4.48;68.67;99635.94;1740867;81;21059;-64
2023/03/31 04:50:59;;;;;;;20.65;9.28;;;;;;;4.48;68.52;99634.58;1740781;82;21027;-62
2023/03/31 04:53:36;;;;;;;22.48;9.30;;;;;;;4.48;68.44;99624.58;1741077;82;21031;-62
2023/03/31 04:56:06;;;;;;;16.07;8.08;;;;;;;4.50;68.34;99627.11;1741043;82;21043;-63
2023/03/31 04:58:35;;;;;;;19.92;9.18;;;;;;;4.50;68.19;99623.89;1741010;82;21430;-64
2023/03/31 05:01:07;;;;;;;16.15;8.85;;;;;;;4.50;68.13;99621.69;1740964;82;21027;-63
2023/03/31 05:03:37;;;;;;;23.98;9.35;;;;;;;4.48;67.81;99612.37;1740992;82;20991;-63
2023/03/31 05:06:07;;;;;;;18.57;8.88;;;;;;;4.48;67.88;99611.02;1741210;82;21059;-64
2023/03/31 05:08:37;;;;;;;19.27;8.73;;;;;;;4.49;67.85;99608.63;1741086;82;21078;-64
2023/03/31 05:11:07;;;;;;;17.05;8.38;;;;;;;4.52;67.64;99606.92;1741001;82;21019;-63
2023/03/31 05:13:37;;;;;;;20.72;9.23;;;;;;;4.54;67.54;99610.30;1740967;82;21090;-63
2023/03/31 05:16:08;;;;;;;19.50;9.20;;;;;;;4.55;67.58;99620.64;1740946;82;21563;-63
2023/03/31 05:18:38;;;;;;;19.40;9.13;;;;;;;4.57;67.68;99611.84;1741248;82;21062;-64
2023/03/31 05:21:13;;;;;;;24.27;10.35;;;;;;;4.57;67.75;99610.48;1741026;82;21059;-62
2023/03/31 05:23:42;;;;;;;18.52;9.05;;;;;;;4.55;67.85;99596.22;1740801;82;21043;-65
2023/03/31 05:26:12;;;;;;;19.12;8.63;;;;;;;4.56;67.99;99597.44;1741056;82;21019;-64
2023/03/31 05:28:43;;;;;;;17.70;8.28;;;;;;;4.60;67.99;99596.05;1740339;80;21126;-65
2023/03/31 05:31:12;;;;;;;19.90;7.47;;;;;;;4.62;67.93;99585.87;1705176;84;21080;-64
2023/03/31 05:33:42;;;;;;;14.68;7.72;;;;;;;4.64;67.84;99587.89;1677903;85;21031;-63
2023/03/31 05:36:14;;;;;;;16.15;7.85;;;;;;;4.69;67.74;99589.55;1740584;81;20994;-65
2023/03/31 05:38:43;;;;;;;14.93;7.90;;;;;;;4.71;67.62;99585.30;1704937;84;21021;-63
2023/03/31 05:41:12;;;;;;;19.55;7.47;;;;;;;4.69;67.52;99576.50;1678118;85;21071;-64
2023/03/31 05:43:42;;;;;;;15.43;7.78;;;;;;;4.71;67.24;99572.58;1740389;81;21007;-63
2023/03/31 05:46:11;;;;;;;14.68;7.08;;;;;;;4.70;67.16;99555.97;1705002;83;21030;-62
2023/03/31 05:48:40;;;;;;;15.78;8.00;;;;;;;4.71;67.32;99550.87;1677846;85;21063;-62
2023/03/31 05:51:09;;;;;;;17.40;7.85;;;;;;;4.71;67.37;99545.44;1740693;82;21084;-62
2023/03/31 05:53:38;;;;;;;18.25;8.00;;;;;;;4.75;67.44;99540.50;1705045;83;21993;-65
2023/03/31 05:56:07;;;;;;;16.93;7.62;;;;;;;4.77;67.60;99531.66;1678131;85;21456;-63
2023/03/31 05:58:41;;;;;;;25.10;8.05;;;;;;;4.81;67.69;99538.41;1740309;82;21419;-64
2023/03/31 06:01:18;;;;;;;21.55;8.30;;;;;;;4.82;67.68;99541.97;1704876;84;21080;-65
2023/03/31 06:03:47;;;;;;;27.35;8.15;;;;;;;4.83;67.77;99536.87;1677870;85;21067;-64
2023/03/31 06:06:16;;;;;;;18.85;7.60;;;;;;;4.85;68.08;99531.59;1740459;82;21061;-63
2023/03/31 06:08:47;;;;;;;20.15;7.87;;;;;;;4.90;68.08;99535.97;1613311;88;21078;-64
2023/03/31 06:11:19;;;;;;;26.05;8.45;;;;;;;4.95;68.02;99528.11;1626720;87;21025;-64
2023/03/31 06:13:48;;;;;;;18.07;8.18;;;;;;;5.00;68.11;99532.99;1658893;86;21082;-64
2023/03/31 06:16:18;;;;;;;20.02;8.55;;;;;;;5.00;68.23;99534.35;1658803;86;21086;-65
2023/03/31 06:18:50;;;;;;;18.65;8.48;;;;;;;5.03;68.18;99527.20;1658900;85;21054;-64
2023/03/31 06:21:19;;;;;;;21.87;9.35;;;;;;;5.06;68.15;99522.25;1659028;86;21095;-64
2023/03/31 06:23:53;;;;;;;20.35;8.23;;;;;;;5.10;67.98;99518.65;1658740;85;21103;-62
2023/03/31 06:26:26;;;;;;;19.23;8.00;;;;;;;5.12;67.64;99522.02;1554185;89;21121;-64
2023/03/31 06:28:52;;;;;;;20.62;7.70;;;;;;;5.15;67.57;99531.16;1610249;87;21067;-65
2023/03/31 06:31:23;;;;;;;16.23;8.13;;;;;;;5.19;67.46;99550.64;1610542;89;21167;-65
2023/03/31 06:33:52;;;;;;;18.15;7.62;;;;;;;5.22;67.31;99549.79;1610470;88;21066;-64
2023/03/31 06:36:22;;;;;;;16.42;7.83;;;;;;;5.22;67.29;99532.14;1610410;89;22015;-64
2023/03/31 06:38:51;;;;;;;16.73;8.00;;;;;;;5.24;67.22;99529.23;1610623;89;21110;-64
2023/03/31 06:41:21;;;;;;;20.90;8.45;;;;;;;5.24;67.18;99527.36;1610814;89;21165;-64
2023/03/31 06:43:49;;;;;;;15.98;7.53;;;;;;;5.28;67.12;99527.33;1628537;85;21059;-62
2023/03/31 06:46:18;;;;;;;17.07;7.72;;;;;;;5.32;66.65;99515.58;1740792;81;21037;-64
2023/03/31 06:48:48;;;;;;;13.83;7.22;;;;;;;5.36;66.46;99508.74;1705208;83;21017;-64
2023/03/31 06:51:17;;;;;;;16.42;7.42;;;;;;;5.39;66.21;99509.73;1678104;85;21063;-64
2023/03/31 06:53:46;;;;;;;16.50;7.08;;;;;;;5.47;66.13;99501.48;1740733;82;21450;-64
2023/03/31 06:56:15;;;;;;;16.42;7.85;;;;;;;5.57;65.61;99509.36;1740429;82;20990;-65
2023/03/31 06:58:44;;;;;;;20.68;7.97;;;;;;;5.62;64.58;99499.61;1705120;84;21029;-64
2023/03/31 07:01:13;;;;;;;21.05;8.40;;;;;;;5.64;64.48;99498.91;1678047;85;21023;-64
2023/03/31 07:03:44;;;;;;;25.37;8.90;;;;;;;5.70;64.32;99494.59;1740494;81;21058;-63
2023/03/31 07:06:14;;;;;;;21.15;7.95;;;;;;;5.76;64.19;99486.20;1704981;83;21068;-64
2023/03/31 07:08:42;;;;;;;16.17;7.20;;;;;;;5.86;63.86;99486.27;1677896;85;21044;-64
2023/03/31 07:11:12;;;;;;;22.27;8.83;;;;;;;5.93;63.12;99487.22;1740712;82;21461;-64
2023/03/31 07:13:42;;;;;;;17.92;7.97;;;;;;;6.02;63.05;99482.00;1704900;84;21426;-65
2023/03/31 07:16:13;;;;;;;22.85;7.90;;;;;;;6.14;62.53;99477.42;1678116;85;21507;-64
2023/03/31 07:18:42;;;;;;;16.82;7.65;;;;;;;6.24;61.93;99477.44;1740442;81;21090;-63
2023/03/31 07:21:11;;;;;;;15.15;6.83;;;;;;;6.35;61.10;99474.21;1705225;84;21029;-65
2023/03/31 07:23:41;;;;;;;24.00;7.87;;;;;;;6.47;60.16;99469.61;1678053;85;21472;-64
2023/03/31 07:26:10;;;;;;;17.37;6.90;;;;;;;6.58;59.00;99475.41;1740395;82;21014;-61
2023/03/31 07:28:39;;;;;;;14.38;7.30;;;;;;;6.67;58.28;99476.13;1706982;83;21072;-63
2023/03/31 07:31:12;;;;;;;16.82;8.83;;;;;;;6.78;58.07;99470.67;1690957;85;21034;-64
2023/03/31 07:33:41;;;;;;;21.73;7.55;;;;;;;6.90;57.81;99473.19;1707975;84;21542;-64
2023/03/31 07:36:11;;;;;;;13.03;6.33;;;;;;;7.00;57.08;99477.77;1708223;84;21033;-65
2023/03/31 07:38:45;;;;;;;13.40;6.78;;;;;;;7.08;56.13;99479.50;1707997;84;21065;-64
2023/03/31 07:41:18;;;;;;;12.58;6.20;;;;;;;7.13;55.81;99468.33;1708030;84;21253;-65
2023/03/31 07:43:47;;;;;;;16.10;6.90;;;;;;;7.19;55.31;99467.57;1708570;83;21045;-64
2023/03/31 07:46:26;;;;;;;15.53;6.50;;;;;;;7.21;55.17;99467.37;1710223;84;21040;-64
2023/03/31 07:48:55;;;;;;;15.45;6.33;;;;;;;7.27;54.54;99466.58;1710492;84;21092;-65
2023/03/31 07:51:25;;;;;;;14.80;7.12;;;;;;;7.30;54.25;99460.20;1710642;84;21072;-65
2023/03/31 07:53:55;;;;;;;17.00;6.97;;;;;;;7.35;53.77;99451.44;1710024;84;21092;-65
2023/03/31 07:56:24;;;;;;;19.92;8.33;;;;;;;7.38;53.55;99446.10;1704328;84;21525;-71
2023/03/31 07:58:54;;;;;;;15.45;7.50;;;;;;;7.41;53.64;99451.99;1738386;81;21073;-70
2023/03/31 08:01:27;;;;;;;13.50;6.90;;;;;;;7.46;53.29;99450.03;1735671;82;21061;-65
2023/03/31 08:03:57;;;;;;;16.02;7.55;;;;;;;7.51;53.46;99450.27;1739835;82;21055;-67
2023/03/31 08:06:27;;;;;;;18.48;7.70;;;;;;;7.57;53.30;99440.77;1741485;82;21042;-69
2023/03/31 08:08:57;;;;;;;15.32;6.87;;;;;;;7.64;53.08;99440.80;1745773;81;21521;-69
2023/03/31 08:11:31;;;;;;;15.53;6.45;;;;;;;7.70;52.78;99437.78;1745936;82;21525;-69
2023/03/31 08:14:03;;;;;;;16.35;6.65;;;;;;;7.75;52.56;99430.67;1745879;81;20999;-69
2023/03/31 08:16:32;;;;;;;17.55;7.78;;;;;;;7.80;52.13;99431.42;1741343;82;21027;-66
2023/03/31 08:19:02;;;;;;;15.70;7.78;;;;;;;7.82;51.59;99430.20;1740513;82;21059;-67
2023/03/31 08:21:30;;;;;;;13.40;7.03;;;;;;;7.85;51.67;99424.87;1740355;82;21103;-66
2023/03/31 08:24:01;;;;;;;20.27;6.95;;;;;;;7.89;51.51;99425.62;1740595;82;21106;-69
2023/03/31 08:26:31;;;;;;;11.43;5.75;;;;;;;7.92;51.02;99425.21;1740271;82;21015;-67
2023/03/31 08:29:00;;;;;;;12.45;5.60;;;;;;;7.94;51.19;99419.55;1741721;82;21127;-67
2023/03/31 08:31:30;;;;;;;11.22;5.87;;;;;;;7.96;50.77;99418.82;1742348;82;21070;-69
2023/03/31 08:33:59;;;;;;;14.93;6.30;;;;;;;7.96;50.97;99417.45;1748133;82;21021;-68
2023/03/31 08:36:29;;;;;;;16.00;6.47;;;;;;;7.99;50.99;99415.69;1748124;82;21037;-67
2023/03/31 08:38:58;;;;;;;13.58;5.67;;;;;;;8.01;50.99;99414.12;1748329;81;21097;-67
2023/03/31 08:41:35;;;;;;;11.65;5.55;;;;;;;8.03;51.03;99411.50;1748383;82;21014;-69
2023/03/31 08:44:12;;;;;;;13.13;5.15;;;;;;;8.04;51.36;99401.43;1748526;82;21052;-67
2023/03/31 08:46:42;;;;;;;10.65;5.22;;;;;;;8.06;51.20;99402.06;1701150;81;21078;-68
2023/03/31 08:49:15;;;;;;;10.72;5.25;;;;;;;8.06;51.01;99400.70;1748370;82;21207;-68
2023/03/31 08:51:51;;;;;;;14.00;5.62;;;;;;;8.07;51.25;99399.66;1748353;81;20982;-66
2023/03/31 08:54:42;;;;;;;7.80;4.40;;;;;;;8.06;51.23;99394.72;1718935;82;21037;-68
2023/03/31 08:57:31;;;;;;;14.63;5.62;;;;;;;8.08;51.37;99393.99;1748487;82;21014;-69
2023/03/31 09:00:05;;;;;;;8.83;4.60;;;;;;;8.13;51.14;99381.94;1712371;83;21529;-67
2023/03/31 09:02:51;;;;;;;9.45;4.47;;;;;;;8.18;50.89;99385.41;1715449;84;21055;-68
2023/03/31 09:05:31;;;;;;;8.70;4.60;;;;;;;8.22;50.59;99390.77;1715709;83;21111;-69
2023/03/31 09:08:18;;;;;;;9.48;4.37;;;;;;;8.24;50.22;99377.23;1692224;84;21036;-67
2023/03/31 09:11:15;;;;;;;10.38;4.65;;;;;;;8.28;50.28;99381.22;1739186;82;21079;-71
2023/03/31 09:13:58;;;;;;;12.73;4.75;;;;;;;8.34;50.13;99378.22;1710949;81;21073;-70
2023/03/31 09:16:35;;;;;;;10.13;4.62;;;;;;;8.38;49.87;99375.91;1747886;81;21030;-67
2023/03/31 09:19:16;;;;;;;9.30;4.62;;;;;;;8.43;49.93;99374.23;1650316;86;21086;-67
2023/03/31 09:21:50;;;;;;;10.35;4.65;;;;;;;8.51;49.72;99369.97;1650271;85;21077;-66
2023/03/31 09:24:33;;;;;;;11.28;4.70;;;;;;;8.58;49.38;99361.78;1629496;87;21049;-66
2023/03/31 09:27:07;;;;;;;9.05;4.78;;;;;;;8.67;49.19;99356.42;1650614;86;21458;-67
2023/03/31 09:29:52;;;;;;;10.05;4.12;;;;;;;8.74;48.97;99352.31;1654590;86;21532;-67
2023/03/31 09:32:27;;;;;;;8.30;4.55;;;;;;;8.75;48.84;99347.17;1655299;85;21175;-67
2023/03/31 09:35:03;;;;;;;10.48;4.53;;;;;;;8.78;48.79;99337.19;1634593;87;21095;-68
2023/03/31 09:37:33;;;;;;;10.45;4.72;;;;;;;8.79;48.79;99339.70;1682072;84;21120;-67
2023/03/31 09:40:06;;;;;;;10.40;4.62;;;;;;;8.84;48.52;99339.06;1700927;84;21019;-68
2023/03/31 09:42:34;;;;;;;9.78;4.67;;;;;;;8.90;48.40;99331.39;1700522;84;21075;-67
2023/03/31 09:45:04;;;;;;;13.93;4.95;;;;;;;8.97;48.22;99332.22;1669469;85;21065;-69
2023/03/31 09:47:41;;;;;;;9.20;4.35;;;;;;;9.01;47.81;99322.53;1640637;87;21470;-67
2023/03/31 09:50:10;;;;;;;9.45;3.58;;;;;;;9.03;47.75;99320.43;1669745;85;21022;-68
2023/03/31 09:52:58;;;;;;;12.20;4.45;;;;;;;9.05;47.37;99327.05;1640510;87;21176;-71
2023/03/31 09:55:49;;;;;;;14.25;5.10;;;;;;;9.05;47.87;99319.69;1640771;87;21469;-68
2023/03/31 09:58:19;;;;;;;11.48;4.83;;;;;;;9.07;47.71;99316.21;1640701;87;21108;-65
2023/03/31 10:01:03;;;;;;;11.60;4.95;;;;;;;9.11;48.19;99316.13;1668872;86;21537;-65
2023/03/31 10:03:35;;;;;;;21.20;5.70;;;;;;;9.16;48.54;99314.95;1638850;86;21060;-65
2023/03/31 10:06:10;;;;;;;13.08;5.22;;;;;;;9.21;48.57;99320.61;1700529;84;21486;-64
2023/03/31 10:09:00;;;;;;;9.73;4.40;;;;;;;9.26;48.37;99313.66;1692936;84;21134;-65
2023/03/31 10:11:29;;;;;;;9.58;4.65;;;;;;;9.29;48.04;99311.86;1692913;85;21311;-65
2023/03/31 10:14:04;;;;;;;11.10;4.08;;;;;;;9.31;48.05;99310.59;1700037;84;21487;-65
2023/03/31 10:16:55;;;;;;;11.35;4.97;;;;;;;9.34;48.41;99307.42;1672451;85;21062;-66
2023/03/31 10:19:29;;;;;;;9.68;4.75;;;;;;;9.39;48.06;99299.94;1641948;86;21057;-66
2023/03/31 10:22:04;;;;;;;9.08;4.62;;;;;;;9.40;47.92;99302.98;1625807;88;21516;-66
2023/03/31 10:24:42;;;;;;;10.13;4.78;;;;;;;9.40;48.08;99294.78;1614309;87;21058;-65
2023/03/31 10:27:27;;;;;;;10.05;4.62;;;;;;;9.43;47.61;99288.88;1569565;91;21136;-62
2023/03/31 10:29:58;;;;;;;8.90;4.78;;;;;;;9.46;47.64;99292.02;1591405;89;21143;-67
2023/03/31 10:32:30;;;;;;;13.08;4.83;;;;;;;9.52;47.65;99290.31;1599383;89;21547;-67
2023/03/31 10:35:25;;;;;;;13.83;5.28;;;;;;;9.55;47.42;99284.41;1599492;89;21060;-66
2023/03/31 10:37:58;;;;;;;7.87;4.20;;;;;;;9.58;47.11;99283.97;1622305;88;21125;-70
2023/03/31 10:40:28;;;;;;;9.45;4.42;;;;;;;9.61;46.56;99289.00;1622136;88;21128;-67
2023/03/31 10:43:17;;;;;;;7.35;3.83;;;;;;;9.62;46.71;99273.42;1622050;88;21140;-66
2023/03/31 10:45:55;;;;;;;7.65;3.92;;;;;;;9.63;46.14;99273.20;1660007;85;21487;-64
2023/03/31 10:48:36;;;;;;;10.20;3.95;;;;;;;9.64;46.55;99274.89;1679195;85;21082;-64
2023/03/31 10:51:18;;;;;;;13.80;4.45;;;;;;;9.66;46.49;99273.30;1679338;85;21067;-64
2023/03/31 10:53:50;;;;;;;8.80;3.92;;;;;;;9.68;46.82;99271.19;1679741;85;21084;-64
2023/03/31 10:56:36;;;;;;;8.58;3.70;;;;;;;9.69;46.76;99279.17;1679281;85;21511;-64
2023/03/31 10:59:27;;;;;;;9.28;4.65;;;;;;;9.70;46.82;99271.80;1679533;85;21067;-65
2023/03/31 11:02:26;;;;;;;8.70;3.95;;;;;;;9.72;46.98;99267.79;1679543;85;22049;-65
2023/03/31 11:05:16;;;;;;;10.32;4.30;;;;;;;9.77;47.14;99263.06;1680785;85;21126;-64
2023/03/31 11:08:04;;;;;;;8.73;4.90;;;;;;;9.77;47.13;99257.06;1707213;84;21008;-65
2023/03/31 11:11:00;;;;;;;10.95;4.70;;;;;;;9.79;46.85;99260.94;1748789;82;21026;-64
2023/03/31 11:14:02;;;;;;;12.30;5.45;;;;;;;9.81;47.09;99250.09;1747947;82;21066;-63
2023/03/31 11:16:43;;;;;;;12.47;4.17;;;;;;;9.84;47.03;99251.02;1708018;82;21105;-69
2023/03/31 11:19:21;;;;;;;9.58;4.87;;;;;;;;;;1716646;83;20993;-67
2023/03/31 11:22:30;;;;;;;11.45;4.60;;;;;;;9.93;46.69;99243.38;1716460;83;21109;-65
2023/03/31 11:25:19;;;;;;;13.10;5.73;;;;;;;9.97;46.59;99225.45;1679213;85;21340;-68
2023/03/31 11:28:19;;;;;;;10.63;4.95;;;;;;;9.99;46.57;99227.97;1662321;86;21047;-67
2023/03/31 11:30:53;;;;;;;15.10;5.30;;;;;;;10.01;46.38;99223.11;1655207;87;21065;-68
2023/03/31 11:33:50;;;;;;;11.08;4.90;;;;;;;10.02;46.48;99217.41;1655765;85;21089;-68
2023/03/31 11:36:40;;;;;;;13.08;5.25;;;;;;;10.08;46.33;99219.25;1655563;85;21068;-68
2023/03/31 11:39:20;;;;;;;13.62;5.22;;;;;;;10.13;46.23;99209.00;1655539;85;21025;-67
2023/03/31 11:41:56;;;;;;;25.90;7.15;;;;;;;10.23;46.10;99206.63;1655523;86;21457;-68
2023/03/31 11:44:26;;;;;;;9.38;5.17;;;;;;;10.31;45.01;99213.19;1655236;86;21099;-67
2023/03/31 11:47:02;;;;;;;10.30;4.95;;;;;;;10.37;44.42;99212.28;1655156;85;21559;-67
2023/03/31 11:49:41;;;;;;;11.93;5.08;;;;;;;10.38;43.81;99204.38;1655814;86;21057;-67
2023/03/31 11:52:18;;;;;;;10.18;5.05;;;;;;;10.39;43.38;99206.05;1624654;87;21542;-66
2023/03/31 11:55:05;;;;;;;11.50;5.40;;;;;;;10.42;43.79;99205.63;1655254;86;21509;-69
2023/03/31 11:58:13;;;;;;;16.73;6.12;;;;;;;10.44;43.51;99193.92;1655770;87;21444;-68
2023/03/31 12:00:47;;;;;;;15.98;6.00;;;;;;;10.49;43.17;99198.72;1610849;87;21123;-68
2023/03/31 12:03:28;;;;;;;9.33;5.20;;;;;;;10.51;42.63;99184.27;1623565;88;21067;-67
2023/03/31 12:06:08;;;;;;;9.75;5.25;;;;;;;10.54;43.07;99181.60;1645887;84;21061;-68
2023/03/31 12:08:56;;;;;;;9.83;5.47;;;;;;;10.54;42.68;99177.49;1696828;84;21125;-68
2023/03/31 12:11:32;;;;;;;16.97;5.92;;;;;;;10.55;42.67;99177.27;1697140;84;21078;-69